sensor_id;sensor_type;location;lat;lon;timestamp;pressure;altitude;pressure_sealevel;temperature;humidity
9695;BME280;4690;52.422;13.486;2022-11-15T00:06:12;101245.56;;;6.51;81.20
9695;BME280;4690;52.422;13.486;2022-11-15T00:08:38;101250.16;;;6.51;81.46
9695;BME280;4690;52.422;13.486;2022-11-15T00:11:04;101250.34;;;6.49;81.41
9695;BME280;4690;52.422;13.486;2022-11-15T00:13:30;101246.88;;;6.41;81.44
9695;BME280;4690;52.422;13.486;2022-11-15T00:16:00;101245.56;;;6.37;82.05
9695;BME280;4690;52.422;13.486;2022-11-15T00:18:28;101238.91;;;6.39;81.92
9695;BME280;4690;52.422;13.486;2022-11-15T00:20:54;101248.75;;;6.40;81.83
9695;BME280;4690;52.422;13.486;2022-11-15T00:23:20;101239.53;;;6.41;81.77
9695;BME280;4690;52.422;13.486;2022-11-15T00:25:45;101228.19;;;6.38;81.92
9695;BME280;4690;52.422;13.486;2022-11-15T00:28:11;101226.50;;;6.37;82.05
9695;BME280;4690;52.422;13.486;2022-11-15T00:30:37;101227.72;;;6.34;81.74
9695;BME280;4690;52.422;13.486;2022-11-15T00:33:05;101218.91;;;6.32;81.25
9695;BME280;4690;52.422;13.486;2022-11-15T00:35:34;101223.69;;;6.30;81.14
9695;BME280;4690;52.422;13.486;2022-11-15T00:38:01;101223.88;;;6.28;81.57
9695;BME280;4690;52.422;13.486;2022-11-15T00:40:27;101221.31;;;6.27;81.50
9695;BME280;4690;52.422;13.486;2022-11-15T00:42:53;101217.59;;;6.28;81.19
9695;BME280;4690;52.422;13.486;2022-11-15T00:45:19;101209.13;;;6.23;81.48
9695;BME280;4690;52.422;13.486;2022-11-15T00:47:45;101220.88;;;6.23;81.19
9695;BME280;4690;52.422;13.486;2022-11-15T00:50:12;101220.41;;;6.20;80.74
9695;BME280;4690;52.422;13.486;2022-11-15T00:52:38;101205.47;;;6.16;80.85
9695;BME280;4690;52.422;13.486;2022-11-15T00:55:05;101209.41;;;6.13;80.89
9695;BME280;4690;52.422;13.486;2022-11-15T00:57:30;101213.34;;;6.11;80.76
9695;BME280;4690;52.422;13.486;2022-11-15T00:59:56;101202.19;;;6.05;80.50
9695;BME280;4690;52.422;13.486;2022-11-15T01:02:22;101204.25;;;6.03;80.62
9695;BME280;4690;52.422;13.486;2022-11-15T01:04:48;101198.13;;;6.01;80.53
9695;BME280;4690;52.422;13.486;2022-11-15T01:07:13;101199.34;;;5.99;80.17
9695;BME280;4690;52.422;13.486;2022-11-15T01:09:39;101199.72;;;5.96;80.45
9695;BME280;4690;52.422;13.486;2022-11-15T01:12:08;101198.22;;;5.93;79.99
9695;BME280;4690;52.422;13.486;2022-11-15T01:14:34;101201.59;;;5.95;80.38
9695;BME280;4690;52.422;13.486;2022-11-15T01:16:59;101187.69;;;5.90;79.86
9695;BME280;4690;52.422;13.486;2022-11-15T01:19:25;101186.00;;;5.89;79.93
9695;BME280;4690;52.422;13.486;2022-11-15T01:21:51;101188.03;;;5.87;80.00
9695;BME280;4690;52.422;13.486;2022-11-15T01:24:17;101190.09;;;5.85;79.60
9695;BME280;4690;52.422;13.486;2022-11-15T01:26:43;101181.66;;;5.80;79.87
9695;BME280;4690;52.422;13.486;2022-11-15T01:29:09;101186.63;;;5.76;79.69
9695;BME280;4690;52.422;13.486;2022-11-15T01:31:34;101176.94;;;5.74;80.14
9695;BME280;4690;52.422;13.486;2022-11-15T01:34:00;101171.50;;;5.74;79.61
9695;BME280;4690;52.422;13.486;2022-11-15T01:36:26;101171.88;;;5.71;80.48
9695;BME280;4690;52.422;13.486;2022-11-15T01:39:00;101167.03;;;5.66;80.04
9695;BME280;4690;52.422;13.486;2022-11-15T01:41:32;101170.56;;;5.67;80.15
9695;BME280;4690;52.422;13.486;2022-11-15T01:46:57;101155.09;;;5.67;79.99
9695;BME280;4690;52.422;13.486;2022-11-15T01:49:26;101154.63;;;5.64;79.67
9695;BME280;4690;52.422;13.486;2022-11-15T01:51:54;101142.25;;;5.61;80.07
9695;BME280;4690;52.422;13.486;2022-11-15T01:54:23;101139.72;;;5.59;80.18
9695;BME280;4690;52.422;13.486;2022-11-15T01:56:56;101145.34;;;5.58;79.82
9695;BME280;4690;52.422;13.486;2022-11-15T01:59:26;101139.25;;;5.56;79.62
9695;BME280;4690;52.422;13.486;2022-11-15T02:01:52;101135.00;;;5.53;80.13
9695;BME280;4690;52.422;13.486;2022-11-15T02:04:31;101131.81;;;5.50;79.67
9695;BME280;4690;52.422;13.486;2022-11-15T02:06:59;101135.91;;;5.46;79.84
9695;BME280;4690;52.422;13.486;2022-11-15T02:09:27;101129.47;;;5.47;80.07
9695;BME280;4690;52.422;13.486;2022-11-15T02:11:55;101131.53;;;5.45;79.92
9695;BME280;4690;52.422;13.486;2022-11-15T02:14:24;101124.22;;;5.45;79.96
9695;BME280;4690;52.422;13.486;2022-11-15T02:18:04;101121.88;;;5.42;80.41
9695;BME280;4690;52.422;13.486;2022-11-15T02:20:50;101122.41;;;5.37;80.30
9695;BME280;4690;52.422;13.486;2022-11-15T02:31:41;101123.81;;;5.33;80.14
9695;BME280;4690;52.422;13.486;2022-11-15T02:35:01;101130.28;;;5.32;80.30
9695;BME280;4690;52.422;13.486;2022-11-15T02:38:01;101132.13;;;5.32;80.68
9695;BME280;4690;52.422;13.486;2022-11-15T02:40:43;101123.81;;;5.33;80.13
9695;BME280;4690;52.422;13.486;2022-11-15T02:43:18;101122.31;;;5.31;80.05
9695;BME280;4690;52.422;13.486;2022-11-15T02:46:25;101122.47;;;5.29;79.94
9695;BME280;4690;52.422;13.486;2022-11-15T02:49:14;101120.63;;;5.30;80.91
9695;BME280;4690;52.422;13.486;2022-11-15T02:51:43;101119.13;;;5.27;80.11
9695;BME280;4690;52.422;13.486;2022-11-15T02:54:21;101114.06;;;5.24;80.44
9695;BME280;4690;52.422;13.486;2022-11-15T02:56:52;101109.09;;;5.28;80.58
9695;BME280;4690;52.422;13.486;2022-11-15T03:05:35;101103.91;;;5.18;80.25
9695;BME280;4690;52.422;13.486;2022-11-15T03:11:15;101104.94;;;5.17;80.60
9695;BME280;4690;52.422;13.486;2022-11-15T03:14:13;101108.69;;;5.16;80.62
9695;BME280;4690;52.422;13.486;2022-11-15T03:17:03;101110.56;;;5.15;80.71
9695;BME280;4690;52.422;13.486;2022-11-15T03:19:47;101104.44;;;5.13;80.56
9695;BME280;4690;52.422;13.486;2022-11-15T03:22:20;101101.06;;;5.11;80.39
9695;BME280;4690;52.422;13.486;2022-11-15T03:24:53;101102.94;;;5.11;80.64
9695;BME280;4690;52.422;13.486;2022-11-15T03:27:24;101103.31;;;5.08;80.53
9695;BME280;4690;52.422;13.486;2022-11-15T03:29:59;101101.44;;;5.08;80.32
9695;BME280;4690;52.422;13.486;2022-11-15T03:32:30;101101.28;;;5.10;80.89
9695;BME280;4690;52.422;13.486;2022-11-15T03:35:10;101097.03;;;5.07;80.19
9695;BME280;4690;52.422;13.486;2022-11-15T03:38:08;101109.41;;;5.10;80.35
9695;BME280;4690;52.422;13.486;2022-11-15T03:40:41;101098.56;;;5.10;80.63
9695;BME280;4690;52.422;13.486;2022-11-15T03:46:25;101104.34;;;5.07;80.26
9695;BME280;4690;52.422;13.486;2022-11-15T03:49:08;101089.06;;;5.06;80.18
9695;BME280;4690;52.422;13.486;2022-11-15T03:51:35;101096.00;;;5.08;79.83
9695;BME280;4690;52.422;13.486;2022-11-15T03:54:06;101093.66;;;5.05;80.24
9695;BME280;4690;52.422;13.486;2022-11-15T03:56:32;101090.09;;;5.05;80.59
9695;BME280;4690;52.422;13.486;2022-11-15T03:58:58;101094.03;;;5.02;80.41
9695;BME280;4690;52.422;13.486;2022-11-15T04:01:24;101096.53;;;5.04;81.05
9695;BME280;4690;52.422;13.486;2022-11-15T04:03:49;101086.91;;;5.01;80.09
9695;BME280;4690;52.422;13.486;2022-11-15T04:06:15;101091.09;;;5.04;79.70
9695;BME280;4690;52.422;13.486;2022-11-15T04:08:41;101084.00;;;5.03;80.31
9695;BME280;4690;52.422;13.486;2022-11-15T04:11:07;101082.50;;;5.00;79.55
9695;BME280;4690;52.422;13.486;2022-11-15T04:13:33;101084.38;;;5.00;80.07
9695;BME280;4690;52.422;13.486;2022-11-15T04:15:59;101090.63;;;5.00;79.90
9695;BME280;4690;52.422;13.486;2022-11-15T04:18:24;101077.41;;;4.97;80.23
9695;BME280;4690;52.422;13.486;2022-11-15T04:20:50;101071.63;;;5.00;79.92
9695;BME280;4690;52.422;13.486;2022-11-15T04:23:34;101074.53;;;4.99;79.75
9695;BME280;4690;52.422;13.486;2022-11-15T04:26:32;101065.72;;;4.97;80.14
9695;BME280;4690;52.422;13.486;2022-11-15T04:28:58;101064.88;;;4.96;80.74
9695;BME280;4690;52.422;13.486;2022-11-15T04:31:43;101070.69;;;4.93;80.59
9695;BME280;4690;52.422;13.486;2022-11-15T04:34:08;101072.00;;;4.97;80.86
9695;BME280;4690;52.422;13.486;2022-11-15T04:36:34;101067.59;;;4.96;80.29
9695;BME280;4690;52.422;13.486;2022-11-15T04:39:18;101068.97;;;4.92;80.59
9695;BME280;4690;52.422;13.486;2022-11-15T04:41:44;101063.38;;;4.93;81.21
9695;BME280;4690;52.422;13.486;2022-11-15T04:44:10;101068.81;;;4.93;80.12
9695;BME280;4690;52.422;13.486;2022-11-15T04:46:35;101068.13;;;4.91;80.73
9695;BME280;4690;52.422;13.486;2022-11-15T04:49:01;101071.69;;;4.92;80.73
9695;BME280;4690;52.422;13.486;2022-11-15T04:51:27;101067.75;;;4.94;80.97
9695;BME280;4690;52.422;13.486;2022-11-15T04:53:53;101076.94;;;4.93;80.77
9695;BME280;4690;52.422;13.486;2022-11-15T04:56:19;101064.03;;;4.96;81.58
9695;BME280;4690;52.422;13.486;2022-11-15T04:58:45;101060.44;;;4.95;81.48
9695;BME280;4690;52.422;13.486;2022-11-15T05:01:13;101061.31;;;4.96;81.26
9695;BME280;4690;52.422;13.486;2022-11-15T05:03:41;101071.16;;;4.97;81.58
9695;BME280;4690;52.422;13.486;2022-11-15T05:06:25;101060.44;;;4.95;80.91
9695;BME280;4690;52.422;13.486;2022-11-15T05:08:51;101058.41;;;4.97;81.25
9695;BME280;4690;52.422;13.486;2022-11-15T05:11:17;101052.97;;;4.97;81.24
9695;BME280;4690;52.422;13.486;2022-11-15T05:13:43;101055.03;;;4.95;80.92
9695;BME280;4690;52.422;13.486;2022-11-15T05:16:09;101047.91;;;4.94;81.30
9695;BME280;4690;52.422;13.486;2022-11-15T05:18:35;101052.31;;;4.95;80.86
9695;BME280;4690;52.422;13.486;2022-11-15T05:21:10;101055.22;;;4.93;80.71
9695;BME280;4690;52.422;13.486;2022-11-15T05:23:36;101045.19;;;4.94;80.45
9695;BME280;4690;52.422;13.486;2022-11-15T05:26:04;101055.22;;;4.93;81.29
9695;BME280;4690;52.422;13.486;2022-11-15T05:28:32;101054.19;;;4.94;80.87
9695;BME280;4690;52.422;13.486;2022-11-15T05:31:16;101046.41;;;4.91;81.20
9695;BME280;4690;52.422;13.486;2022-11-15T05:33:43;101045.38;;;4.92;80.88
9695;BME280;4690;52.422;13.486;2022-11-15T05:36:37;101058.47;;;4.89;81.69
9695;BME280;4690;52.422;13.486;2022-11-15T05:39:06;101052.69;;;4.92;80.89
9695;BME280;4690;52.422;13.486;2022-11-15T05:41:56;101049.31;;;4.90;81.50
9695;BME280;4690;52.422;13.486;2022-11-15T05:44:25;101057.47;;;4.90;80.97
9695;BME280;4690;52.422;13.486;2022-11-15T05:46:53;101056.44;;;4.91;81.17
9695;BME280;4690;52.422;13.486;2022-11-15T05:49:27;101062.03;;;4.89;81.03
9695;BME280;4690;52.422;13.486;2022-11-15T05:51:56;101062.69;;;4.91;81.26
9695;BME280;4690;52.422;13.486;2022-11-15T05:54:24;101072.06;;;4.89;80.87
9695;BME280;4690;52.422;13.486;2022-11-15T05:56:50;101063.91;;;4.89;80.96
9695;BME280;4690;52.422;13.486;2022-11-15T05:59:17;101061.03;;;4.90;81.13
9695;BME280;4690;52.422;13.486;2022-11-15T06:01:44;101065.94;;;4.87;81.30
9695;BME280;4690;52.422;13.486;2022-11-15T06:04:10;101060.72;;;4.85;81.09
9695;BME280;4690;52.422;13.486;2022-11-15T06:06:35;101065.94;;;4.87;81.00
9695;BME280;4690;52.422;13.486;2022-11-15T06:09:02;101068.03;;;4.85;81.29
9695;BME280;4690;52.422;13.486;2022-11-15T06:11:28;101071.38;;;4.87;81.22
9695;BME280;4690;52.422;13.486;2022-11-15T06:13:54;101075.81;;;4.88;81.21
9695;BME280;4690;52.422;13.486;2022-11-15T06:16:20;101070.19;;;4.89;81.02
9695;BME280;4690;52.422;13.486;2022-11-15T06:18:46;101064.94;;;4.88;80.95
9695;BME280;4690;52.422;13.486;2022-11-15T06:21:12;101074.75;;;4.89;81.38
9695;BME280;4690;52.422;13.486;2022-11-15T06:23:37;101072.41;;;4.86;81.71
9695;BME280;4690;52.422;13.486;2022-11-15T06:26:03;101082.25;;;4.87;81.14
9695;BME280;4690;52.422;13.486;2022-11-15T06:28:33;101074.75;;;4.89;80.98
9695;BME280;4690;52.422;13.486;2022-11-15T06:31:08;101079.34;;;4.88;81.36
9695;BME280;4690;52.422;13.486;2022-11-15T06:33:34;101081.03;;;4.89;81.28
9695;BME280;4690;52.422;13.486;2022-11-15T06:36:02;101083.59;;;4.91;80.81
9695;BME280;4690;52.422;13.486;2022-11-15T06:38:28;101077.97;;;4.92;81.02
9695;BME280;4690;52.422;13.486;2022-11-15T06:40:54;101076.09;;;4.93;81.54
9695;BME280;4690;52.422;13.486;2022-11-15T06:43:19;101072.53;;;4.92;80.53
9695;BME280;4690;52.422;13.486;2022-11-15T06:45:48;101076.28;;;4.91;81.80
9695;BME280;4690;52.422;13.486;2022-11-15T06:48:14;101073.03;;;4.96;81.32
9695;BME280;4690;52.422;13.486;2022-11-15T06:50:39;101074.34;;;5.00;81.23
9695;BME280;4690;52.422;13.486;2022-11-15T06:53:05;101076.69;;;5.03;80.99
9695;BME280;4690;52.422;13.486;2022-11-15T06:55:31;101080.06;;;5.05;81.07
9695;BME280;4690;52.422;13.486;2022-11-15T06:57:57;101083.09;;;5.10;81.67
9695;BME280;4690;52.422;13.486;2022-11-15T07:00:22;101080.19;;;5.12;80.88
9695;BME280;4690;52.422;13.486;2022-11-15T07:02:49;101086.59;;;5.19;81.83
9695;BME280;4690;52.422;13.486;2022-11-15T07:05:15;101086.22;;;5.22;80.84
9695;BME280;4690;52.422;13.486;2022-11-15T07:07:41;101082.09;;;5.26;81.31
9695;BME280;4690;52.422;13.486;2022-11-15T07:10:08;101085.09;;;5.31;81.88
9695;BME280;4690;52.422;13.486;2022-11-15T07:12:35;101091.00;;;5.35;81.96
9695;BME280;4690;52.422;13.486;2022-11-15T07:15:00;101085.31;;;5.45;81.58
9695;BME280;4690;52.422;13.486;2022-11-15T07:17:26;101094.41;;;5.52;81.75
9695;BME280;4690;52.422;13.486;2022-11-15T07:19:52;101105.41;;;5.58;81.45
9695;BME280;4690;52.422;13.486;2022-11-15T07:22:17;101099.88;;;5.67;81.42
9695;BME280;4690;52.422;13.486;2022-11-15T07:24:43;101086.22;;;5.75;82.08
9695;BME280;4690;52.422;13.486;2022-11-15T07:27:09;101100.72;;;5.82;81.51
9695;BME280;4690;52.422;13.486;2022-11-15T07:29:35;101098.97;;;5.89;81.85
9695;BME280;4690;52.422;13.486;2022-11-15T07:32:00;101105.19;;;5.98;81.16
9695;BME280;4690;52.422;13.486;2022-11-15T07:34:26;101103.88;;;6.09;81.34
9695;BME280;4690;52.422;13.486;2022-11-15T07:36:52;101106.50;;;6.17;81.57
9695;BME280;4690;52.422;13.486;2022-11-15T07:39:17;101097.19;;;6.26;81.86
9695;BME280;4690;52.422;13.486;2022-11-15T07:41:43;101104.41;;;6.34;82.09
9695;BME280;4690;52.422;13.486;2022-11-15T07:44:09;101100.53;;;6.43;81.33
9695;BME280;4690;52.422;13.486;2022-11-15T07:46:34;101098.53;;;6.51;81.44
9695;BME280;4690;52.422;13.486;2022-11-15T07:49:00;101099.94;;;6.62;81.59
9695;BME280;4690;52.422;13.486;2022-11-15T07:51:26;101099.59;;;6.72;81.55
9695;BME280;4690;52.422;13.486;2022-11-15T07:53:52;101099.53;;;6.87;81.64
9695;BME280;4690;52.422;13.486;2022-11-15T07:56:17;101095.28;;;6.99;81.84
9695;BME280;4690;52.422;13.486;2022-11-15T07:58:45;101089.97;;;7.12;81.90
9695;BME280;4690;52.422;13.486;2022-11-15T08:01:11;101095.38;;;7.34;82.21
9695;BME280;4690;52.422;13.486;2022-11-15T08:03:38;101094.25;;;7.50;82.43
9695;BME280;4690;52.422;13.486;2022-11-15T08:06:06;101085.78;;;7.66;83.07
9695;BME280;4690;52.422;13.486;2022-11-15T08:08:32;101088.41;;;7.88;83.09
9695;BME280;4690;52.422;13.486;2022-11-15T08:10:58;101080.16;;;8.09;83.00
9695;BME280;4690;52.422;13.486;2022-11-15T08:13:24;101077.50;;;8.29;83.40
9695;BME280;4690;52.422;13.486;2022-11-15T08:15:50;101081.16;;;8.43;82.73
9695;BME280;4690;52.422;13.486;2022-11-15T08:18:16;101077.44;;;8.64;82.75
9695;BME280;4690;52.422;13.486;2022-11-15T08:20:43;101080.03;;;8.85;82.04
9695;BME280;4690;52.422;13.486;2022-11-15T08:23:11;101069.13;;;9.05;81.92
9695;BME280;4690;52.422;13.486;2022-11-15T08:25:38;101073.31;;;9.01;81.07
9695;BME280;4690;52.422;13.486;2022-11-15T08:28:07;101074.78;;;9.04;81.41
9695;BME280;4690;52.422;13.486;2022-11-15T08:30:39;101066.81;;;9.15;80.68
9695;BME280;4690;52.422;13.486;2022-11-15T08:33:11;101078.19;;;9.12;81.13
9695;BME280;4690;52.422;13.486;2022-11-15T08:35:39;101080.03;;;9.32;81.34
9695;BME280;4690;52.422;13.486;2022-11-15T08:38:04;101073.09;;;9.42;80.78
9695;BME280;4690;52.422;13.486;2022-11-15T08:40:30;101073.94;;;9.43;80.62
9695;BME280;4690;52.422;13.486;2022-11-15T08:42:56;101066.78;;;9.49;80.16
9695;BME280;4690;52.422;13.486;2022-11-15T08:45:23;101068.28;;;9.58;80.32
9695;BME280;4690;52.422;13.486;2022-11-15T08:47:49;101080.03;;;9.65;79.79
9695;BME280;4690;52.422;13.486;2022-11-15T08:50:16;101073.72;;;9.64;79.93
9695;BME280;4690;52.422;13.486;2022-11-15T08:52:42;101064.00;;;9.82;79.80
9695;BME280;4690;52.422;13.486;2022-11-15T08:55:08;101069.03;;;9.85;79.47
9695;BME280;4690;52.422;13.486;2022-11-15T08:57:34;101073.25;;;9.87;79.57
9695;BME280;4690;52.422;13.486;2022-11-15T08:59:59;101071.97;;;10.03;79.19
9695;BME280;4690;52.422;13.486;2022-11-15T09:02:25;101079.56;;;9.95;78.87
9695;BME280;4690;52.422;13.486;2022-11-15T09:04:51;101081.25;;;10.02;79.56
9695;BME280;4690;52.422;13.486;2022-11-15T09:07:17;101072.75;;;10.17;79.08
9695;BME280;4690;52.422;13.486;2022-11-15T09:09:43;101067.66;;;10.34;79.02
9695;BME280;4690;52.422;13.486;2022-11-15T09:12:08;101074.75;;;10.48;78.67
9695;BME280;4690;52.422;13.486;2022-11-15T09:14:34;101067.63;;;10.47;78.71
9695;BME280;4690;52.422;13.486;2022-11-15T09:17:00;101066.75;;;10.47;78.98
9695;BME280;4690;52.422;13.486;2022-11-15T09:19:26;101065.59;;;10.68;78.45
9695;BME280;4690;52.422;13.486;2022-11-15T09:21:52;101069.38;;;10.73;77.74
9695;BME280;4690;52.422;13.486;2022-11-15T09:24:18;101065.50;;;10.81;77.33
9695;BME280;4690;52.422;13.486;2022-11-15T09:26:44;101060.38;;;10.91;77.18
9695;BME280;4690;52.422;13.486;2022-11-15T09:29:10;101064.13;;;10.97;77.24
9695;BME280;4690;52.422;13.486;2022-11-15T09:31:36;101064.94;;;11.04;77.09
9695;BME280;4690;52.422;13.486;2022-11-15T09:34:01;101072.94;;;11.06;76.75
9695;BME280;4690;52.422;13.486;2022-11-15T09:36:27;101080.44;;;11.17;76.40
9695;BME280;4690;52.422;13.486;2022-11-15T09:38:53;101083.63;;;11.14;76.08
9695;BME280;4690;52.422;13.486;2022-11-15T09:44:23;101079.56;;;10.91;76.69
9695;BME280;4690;52.422;13.486;2022-11-15T09:49:35;101079.31;;;10.68;77.51
9695;BME280;4690;52.422;13.486;2022-11-15T09:52:02;101080.28;;;10.80;76.97
9695;BME280;4690;52.422;13.486;2022-11-15T09:54:36;101076.50;;;11.06;76.68
9695;BME280;4690;52.422;13.486;2022-11-15T10:00:15;101068.63;;;11.16;75.87
9695;BME280;4690;52.422;13.486;2022-11-15T10:05:47;101062.44;;;11.28;74.78
9695;BME280;4690;52.422;13.486;2022-11-15T10:08:52;101058.84;;;11.27;75.28
9695;BME280;4690;52.422;13.486;2022-11-15T10:11:32;101053.75;;;11.56;74.59
9695;BME280;4690;52.422;13.486;2022-11-15T10:14:12;101050.00;;;11.50;74.57
9695;BME280;4690;52.422;13.486;2022-11-15T10:17:01;101040.00;;;11.56;74.21
9695;BME280;4690;52.422;13.486;2022-11-15T10:22:53;101030.91;;;11.80;74.06
9695;BME280;4690;52.422;13.486;2022-11-15T10:25:25;101029.63;;;12.01;73.08
9695;BME280;4690;52.422;13.486;2022-11-15T10:28:17;101028.63;;;12.14;73.02
9695;BME280;4690;52.422;13.486;2022-11-15T10:30:52;101017.06;;;12.42;72.43
9695;BME280;4690;52.422;13.486;2022-11-15T10:33:35;101004.47;;;12.65;71.08
9695;BME280;4690;52.422;13.486;2022-11-15T10:38:53;101012.78;;;12.88;69.54
9695;BME280;4690;52.422;13.486;2022-11-15T10:44:31;100992.97;;;13.10;70.18
9695;BME280;4690;52.422;13.486;2022-11-15T10:49:32;100989.31;;;13.28;68.83
9695;BME280;4690;52.422;13.486;2022-11-15T10:52:18;100980.94;;;13.58;67.68
9695;BME280;4690;52.422;13.486;2022-11-15T10:54:54;100978.22;;;13.86;66.34
9695;BME280;4690;52.422;13.486;2022-11-15T10:57:28;100980.44;;;14.13;65.40
9695;BME280;4690;52.422;13.486;2022-11-15T11:00:00;100987.13;;;14.17;65.38
9695;BME280;4690;52.422;13.486;2022-11-15T11:04:57;100970.25;;;14.42;63.92
9695;BME280;4690;52.422;13.486;2022-11-15T11:07:30;100975.84;;;14.59;64.02
9695;BME280;4690;52.422;13.486;2022-11-15T11:10:19;100968.66;;;14.75;63.38
9695;BME280;4690;52.422;13.486;2022-11-15T11:12:45;100967.50;;;15.21;61.55
9695;BME280;4690;52.422;13.486;2022-11-15T11:15:16;100960.25;;;14.98;61.43
9695;BME280;4690;52.422;13.486;2022-11-15T11:17:57;100956.22;;;14.44;63.48
9695;BME280;4690;52.422;13.486;2022-11-15T11:20:28;100958.50;;;14.92;63.32
9695;BME280;4690;52.422;13.486;2022-11-15T11:51:47;100925.00;;;18.70;51.09
9695;BME280;4690;52.422;13.486;2022-11-15T11:54:26;100924.16;;;19.00;50.26
9695;BME280;4690;52.422;13.486;2022-11-15T11:56:59;100927.19;;;19.30;48.96
9695;BME280;4690;52.422;13.486;2022-11-15T11:59:47;100919.38;;;19.47;48.14
9695;BME280;4690;52.422;13.486;2022-11-15T12:02:24;100929.88;;;19.76;47.84
9695;BME280;4690;52.422;13.486;2022-11-15T12:05:01;100922.06;;;19.88;46.89
9695;BME280;4690;52.422;13.486;2022-11-15T12:07:33;100921.94;;;20.08;47.15
9695;BME280;4690;52.422;13.486;2022-11-15T12:10:24;100923.38;;;19.96;46.90
9695;BME280;4690;52.422;13.486;2022-11-15T12:13:15;100914.22;;;19.95;46.38
9695;BME280;4690;52.422;13.486;2022-11-15T12:16:17;100903.06;;;20.00;46.57
9695;BME280;4690;52.422;13.486;2022-11-15T12:18:50;100902.75;;;20.07;46.45
9695;BME280;4690;52.422;13.486;2022-11-15T12:24:08;100892.97;;;19.39;47.73
9695;BME280;4690;52.422;13.486;2022-11-15T12:26:46;100892.22;;;19.18;48.19
9695;BME280;4690;52.422;13.486;2022-11-15T12:29:39;100886.41;;;19.04;48.72
9695;BME280;4690;52.422;13.486;2022-11-15T12:32:28;100895.56;;;18.95;48.86
9695;BME280;4690;52.422;13.486;2022-11-15T12:34:57;100885.84;;;18.62;49.64
9695;BME280;4690;52.422;13.486;2022-11-15T12:42:39;100877.16;;;18.07;51.50
9695;BME280;4690;52.422;13.486;2022-11-15T12:45:37;100873.81;;;17.95;51.47
9695;BME280;4690;52.422;13.486;2022-11-15T12:53:27;100871.63;;;17.39;53.67
9695;BME280;4690;52.422;13.486;2022-11-15T12:56:20;100855.28;;;17.37;54.17
9695;BME280;4690;52.422;13.486;2022-11-15T12:58:56;100859.34;;;17.24;54.40
9695;BME280;4690;52.422;13.486;2022-11-15T13:04:22;100848.69;;;17.54;53.61
9695;BME280;4690;52.422;13.486;2022-11-15T13:07:05;100849.06;;;17.78;53.34
9695;BME280;4690;52.422;13.486;2022-11-15T13:14:57;100855.03;;;18.53;52.22
9695;BME280;4690;52.422;13.486;2022-11-15T13:17:37;100852.81;;;18.70;49.77
9695;BME280;4690;52.422;13.486;2022-11-15T13:23:09;100847.25;;;18.91;49.31
9695;BME280;4690;52.422;13.486;2022-11-15T13:26:10;100850.59;;;18.93;49.63
9695;BME280;4690;52.422;13.486;2022-11-15T13:28:47;100851.44;;;18.93;49.45
9695;BME280;4690;52.422;13.486;2022-11-15T13:31:47;100842.28;;;18.88;48.73
9695;BME280;4690;52.422;13.486;2022-11-15T13:34:32;100842.84;;;18.64;49.49
9695;BME280;4690;52.422;13.486;2022-11-15T13:37:02;100835.31;;;18.49;49.77
9695;BME280;4690;52.422;13.486;2022-11-15T13:39:34;100829.78;;;18.29;50.72
9695;BME280;4690;52.422;13.486;2022-11-15T13:42:02;100827.53;;;18.21;51.01
9695;BME280;4690;52.422;13.486;2022-11-15T13:44:31;100834.97;;;17.84;52.35
9695;BME280;4690;52.422;13.486;2022-11-15T13:47:14;100836.84;;;17.68;52.48
9695;BME280;4690;52.422;13.486;2022-11-15T13:49:40;100835.91;;;17.37;53.68
9695;BME280;4690;52.422;13.486;2022-11-15T13:52:12;100832.25;;;17.37;53.65
9695;BME280;4690;52.422;13.486;2022-11-15T13:54:50;100833.91;;;17.33;53.64
9695;BME280;4690;52.422;13.486;2022-11-15T13:57:36;100831.84;;;17.08;54.10
9695;BME280;4690;52.422;13.486;2022-11-15T14:03:22;100830.31;;;16.85;55.17
9695;BME280;4690;52.422;13.486;2022-11-15T14:06:11;100824.78;;;16.85;55.21
9695;BME280;4690;52.422;13.486;2022-11-15T14:08:39;100815.28;;;16.75;55.67
9695;BME280;4690;52.422;13.486;2022-11-15T14:11:18;100827.41;;;16.69;55.71
9695;BME280;4690;52.422;13.486;2022-11-15T14:14:24;100835.66;;;16.59;56.73
9695;BME280;4690;52.422;13.486;2022-11-15T14:16:56;100833.09;;;16.52;56.80
9695;BME280;4690;52.422;13.486;2022-11-15T14:22:24;100837.03;;;16.29;57.60
9695;BME280;4690;52.422;13.486;2022-11-15T14:25:25;100835.16;;;16.03;58.77
9695;BME280;4690;52.422;13.486;2022-11-15T14:30:50;100830.28;;;15.88;59.51
9695;BME280;4690;52.422;13.486;2022-11-15T14:33:35;100836.78;;;15.77;60.02
9695;BME280;4690;52.422;13.486;2022-11-15T14:36:18;100837.94;;;15.59;60.75
9695;BME280;4690;52.422;13.486;2022-11-15T14:38:45;100830.75;;;15.58;60.98
9695;BME280;4690;52.422;13.486;2022-11-15T14:41:25;100825.63;;;15.44;61.24
9695;BME280;4690;52.422;13.486;2022-11-15T14:43:57;100831.00;;;15.34;61.47
9695;BME280;4690;52.422;13.486;2022-11-15T14:46:23;100824.47;;;15.18;62.19
9695;BME280;4690;52.422;13.486;2022-11-15T14:48:49;100831.06;;;14.78;64.12
9695;BME280;4690;52.422;13.486;2022-11-15T14:51:18;100824.72;;;14.61;65.09
9695;BME280;4690;52.422;13.486;2022-11-15T14:53:45;100816.78;;;14.65;64.99
9695;BME280;4690;52.422;13.486;2022-11-15T14:56:12;100823.66;;;14.62;65.27
9695;BME280;4690;52.422;13.486;2022-11-15T14:58:38;100815.97;;;14.64;65.09
9695;BME280;4690;52.422;13.486;2022-11-15T15:01:25;100816.41;;;14.44;65.73
9695;BME280;4690;52.422;13.486;2022-11-15T15:03:52;100810.56;;;14.41;65.76
9695;BME280;4690;52.422;13.486;2022-11-15T15:06:21;100809.41;;;14.37;65.85
9695;BME280;4690;52.422;13.486;2022-11-15T15:08:47;100807.41;;;14.32;65.90
9695;BME280;4690;52.422;13.486;2022-11-15T15:11:29;100808.09;;;14.22;65.83
9695;BME280;4690;52.422;13.486;2022-11-15T15:13:55;100815.06;;;14.13;66.37
9695;BME280;4690;52.422;13.486;2022-11-15T15:16:24;100803.28;;;14.01;66.87
9695;BME280;4690;52.422;13.486;2022-11-15T15:18:50;100793.50;;;13.93;66.98
9695;BME280;4690;52.422;13.486;2022-11-15T15:21:24;100795.22;;;13.82;67.21
9695;BME280;4690;52.422;13.486;2022-11-15T15:23:52;100806.06;;;13.72;67.99
9695;BME280;4690;52.422;13.486;2022-11-15T15:26:20;100803.44;;;13.65;68.17
9695;BME280;4690;52.422;13.486;2022-11-15T15:28:46;100797.25;;;13.58;68.05